This is the latest recevied weather packets stored in our database for station/object K7KAZ. If no packets are shown the sender has not sent any weather packets the latest 10 day(s).
| Time | Temp. | Humidity | Pressure | Rain* | Wind** | Luminosity | Snow |
|---|---|---|---|---|---|---|---|
| 1777367041 | 15.56° C | 34% | 1016.8 hPa | 0 mm | - | 0 W/m² | - |
| 1777366735 | 15.56° C | 36% | 1016.7 hPa | 0 mm | - | 0 W/m² | - |
| 1777366431 | 15.56° C | 37% | 1016.8 hPa | 0 mm | - | 0 W/m² | - |
| 1777366127 | 15.56° C | 37% | 1017.1 hPa | 0 mm | - | 0 W/m² | - |
| 1777365824 | 16.67° C | 35% | 1016.9 hPa | 0 mm | - | 0 W/m² | - |
| 1777365520 | 17.22° C | 33% | 1017 hPa | 0 mm | - | 0 W/m² | - |
| 1777365217 | 16.67° C | 32% | 1017.2 hPa | 0 mm | - | 0 W/m² | - |
| 1777364912 | 16.11° C | 37% | 1017 hPa | 0 mm | - | 0 W/m² | - |
| 1777364608 | 16.11° C | 36% | 1017.2 hPa | 0 mm | - | 0 W/m² | - |
| 1777364305 | 16.11° C | 35% | 1017 hPa | 0 mm | - | 0 W/m² | - |
| 1777364001 | 16.11° C | 35% | 1017.3 hPa | 0 mm | - | 0 W/m² | - |
| 1777363697 | 16.11° C | 37% | 1016.9 hPa | 0 mm | - | 0 W/m² | - |
| 1777363394 | 16.67° C | 33% | 1016.9 hPa | 0 mm | - | 0 W/m² | - |
| 1777363092 | 16.67° C | 33% | 1017.3 hPa | 0 mm | - | 0 W/m² | - |
| 1777362787 | 16.67° C | 33% | 1017.2 hPa | 0 mm | - | 0 W/m² | - |
| 1777362486 | 16.67° C | 34% | 1017.2 hPa | 0 mm | - | 0 W/m² | - |
| 1777362183 | 17.22° C | 34% | 1017.2 hPa | 0 mm | - | 0 W/m² | - |
| 1777361880 | 17.22° C | 35% | 1017.1 hPa | 0 mm | - | 0 W/m² | - |
| 1777361577 | 17.78° C | 30% | 1017.2 hPa | 0 mm | - | 0 W/m² | - |
| 1777361275 | 18.33° C | 30% | 1017.1 hPa | 0 mm | - | 0 W/m² | - |
| 1777360971 | 18.33° C | 29% | 1017.1 hPa | 0 mm | - | 0 W/m² | - |
| 1777360670 | 18.33° C | 30% | 1017.1 hPa | 0 mm | - | 0 W/m² | - |
| 1777360365 | 18.33° C | 31% | 1017.2 hPa | 0 mm | - | 0 W/m² | - |
| 1777360063 | 18.33° C | 32% | 1017 hPa | 0 mm | - | 0 W/m² | - |
| 1777359759 | 18.33° C | 29% | 1017 hPa | 0 mm | - | 0 W/m² | - |
* Rain latest hour (hover to see other rain measurements)
** Current wind speed in m/s (hover to see current wind gust speed)